createdAt,value
2022-12-12T00:02:15.195Z,3.28
2022-12-12T00:04:43.318Z,3.70
2022-12-12T00:07:10.867Z,4.50
2022-12-12T00:09:38.417Z,3.45
2022-12-12T00:12:06.408Z,4.65
2022-12-12T00:14:34.304Z,3.72
2022-12-12T00:17:01.895Z,4.15
2022-12-12T00:19:29.394Z,4.15
2022-12-12T00:21:56.939Z,3.72
2022-12-12T00:24:24.441Z,3.63
2022-12-12T00:26:52.040Z,4.47
2022-12-12T00:29:20.268Z,4.07
2022-12-12T00:31:47.762Z,4.15
2022-12-12T00:34:15.269Z,3.85
2022-12-12T00:36:42.878Z,3.50
2022-12-12T00:39:16.665Z,3.67
2022-12-12T00:41:46.680Z,3.70
2022-12-12T00:44:14.212Z,3.40
2022-12-12T00:46:42.633Z,3.80
2022-12-12T00:49:10.197Z,3.40
2022-12-12T00:51:37.745Z,3.10
2022-12-12T00:54:05.931Z,3.13
2022-12-12T00:56:33.643Z,3.00
2022-12-12T00:59:03.870Z,2.92
2022-12-12T01:01:33.332Z,2.75
2022-12-12T01:04:01.697Z,3.35
2022-12-12T01:06:29.246Z,3.45
2022-12-12T01:08:57.097Z,3.65
2022-12-12T01:11:24.953Z,2.90
2022-12-12T01:13:54.627Z,3.20
2022-12-12T01:16:23.654Z,2.90
2022-12-12T01:18:51.330Z,2.45
2022-12-12T01:21:20.610Z,2.75
2022-12-12T01:23:48.584Z,2.90
2022-12-12T01:26:19.917Z,3.08
2022-12-12T01:28:48.184Z,2.78
2022-12-12T01:31:16.005Z,2.80
2022-12-12T01:33:47.492Z,3.22
2022-12-12T01:36:17.163Z,3.28
2022-12-12T01:38:49.423Z,2.42
2022-12-12T01:41:17.785Z,3.40
2022-12-12T01:43:45.545Z,2.30
2022-12-12T01:46:22.405Z,2.83
2022-12-12T01:48:55.258Z,3.03
2022-12-12T01:51:25.240Z,2.45
2022-12-12T01:53:59.892Z,2.40
2022-12-12T01:56:27.709Z,2.65
2022-12-12T01:58:55.960Z,2.17
2022-12-12T02:01:24.462Z,2.95
2022-12-12T02:03:52.944Z,1.88
2022-12-12T02:06:25.032Z,2.38
2022-12-12T02:08:55.111Z,2.45
2022-12-12T02:11:22.732Z,2.25
2022-12-12T02:13:51.063Z,2.58
2022-12-12T02:16:27.547Z,1.95
2022-12-12T02:19:23.301Z,2.03
2022-12-12T02:22:08.601Z,2.20
2022-12-12T02:24:44.911Z,1.98
2022-12-12T02:27:34.223Z,1.70
2022-12-12T02:30:09.526Z,1.60
2022-12-12T02:32:46.200Z,1.85
2022-12-12T02:35:25.695Z,1.80
2022-12-12T02:38:08.291Z,1.70
2022-12-12T02:40:59.360Z,2.00
2022-12-12T02:44:11.747Z,1.73
2022-12-12T02:47:23.251Z,2.13
2022-12-12T02:49:56.632Z,1.73
2022-12-12T02:52:24.843Z,1.55
2022-12-12T02:54:52.341Z,1.58
2022-12-12T02:57:22.725Z,1.50
2022-12-12T02:59:57.847Z,2.10
2022-12-12T03:02:50.060Z,1.58
2022-12-12T03:06:02.782Z,1.70
2022-12-12T03:08:47.702Z,1.70
2022-12-12T03:11:25.976Z,1.90
2022-12-12T03:14:17.119Z,1.92
2022-12-12T03:16:59.897Z,1.77
2022-12-12T03:19:36.617Z,1.45
2022-12-12T03:22:22.763Z,1.77
2022-12-12T03:25:09.165Z,1.65
2022-12-12T03:27:43.365Z,1.60
2022-12-12T03:30:14.624Z,1.60
2022-12-12T03:33:11.663Z,1.85
2022-12-12T03:35:46.500Z,1.45
2022-12-12T03:38:24.950Z,1.90
2022-12-12T03:40:57.059Z,1.90
2022-12-12T03:43:44.587Z,1.88
2022-12-12T03:46:20.957Z,1.85
2022-12-12T03:49:02.234Z,1.88
2022-12-12T03:51:32.104Z,1.58
2022-12-12T03:54:24.565Z,1.88
2022-12-12T03:57:17.726Z,1.90
2022-12-12T03:59:49.201Z,2.03
2022-12-12T04:02:41.047Z,2.08
2022-12-12T04:05:20.773Z,2.05
2022-12-12T04:08:00.315Z,2.00
2022-12-12T04:10:52.187Z,1.83
2022-12-12T04:13:32.433Z,2.28
2022-12-12T04:16:09.117Z,2.38
2022-12-12T04:19:01.458Z,2.33
2022-12-12T04:21:59.387Z,1.90
2022-12-12T04:24:54.771Z,2.05
2022-12-12T04:27:34.362Z,1.83
2022-12-12T04:30:11.877Z,2.25
2022-12-12T04:33:00.711Z,2.00
2022-12-12T04:35:36.645Z,1.98
2022-12-12T04:38:07.790Z,2.13
2022-12-12T04:40:44.508Z,1.80
2022-12-12T04:43:28.735Z,1.92
2022-12-12T04:46:00.366Z,1.73
2022-12-12T04:48:50.708Z,1.70
2022-12-12T04:51:29.885Z,2.17
2022-12-12T04:54:13.612Z,1.60
2022-12-12T04:56:45.643Z,1.65
2022-12-12T04:59:13.356Z,1.75
2022-12-12T05:02:04.923Z,1.48
2022-12-12T05:04:49.737Z,2.03
2022-12-12T05:07:41.793Z,1.50
2022-12-12T05:10:15.878Z,1.23
2022-12-12T05:12:49.247Z,1.73
2022-12-12T05:15:18.851Z,1.65
2022-12-12T05:18:05.596Z,1.50
2022-12-12T05:20:33.473Z,1.90
2022-12-12T05:23:00.931Z,1.88
2022-12-12T05:25:28.478Z,1.77
2022-12-12T05:27:56.274Z,1.40
2022-12-12T05:30:24.226Z,1.30
2022-12-12T05:32:52.066Z,1.40
2022-12-12T05:35:19.608Z,1.60
2022-12-12T05:37:51.654Z,1.50
2022-12-12T05:40:20.901Z,1.60
2022-12-12T05:42:48.533Z,1.30
2022-12-12T05:45:16.190Z,1.42
2022-12-12T05:47:43.781Z,1.50
2022-12-12T05:50:11.377Z,1.20
2022-12-12T05:52:38.831Z,1.52
2022-12-12T05:55:07.076Z,1.13
2022-12-12T05:57:34.593Z,1.35
2022-12-12T06:00:02.379Z,1.15
2022-12-12T06:02:32.625Z,1.40
2022-12-12T06:05:00.157Z,1.02
2022-12-12T06:07:27.683Z,0.95
2022-12-12T06:09:56.001Z,1.23
2022-12-12T06:12:23.548Z,1.65
2022-12-12T06:14:51.030Z,1.27
2022-12-12T06:17:18.492Z,1.10
2022-12-12T06:19:46.003Z,1.38
2022-12-12T06:22:13.461Z,1.20
2022-12-12T06:24:41.589Z,1.00
2022-12-12T06:27:09.151Z,1.08
2022-12-12T06:29:36.761Z,1.25
2022-12-12T06:32:04.627Z,1.30
2022-12-12T06:34:32.262Z,1.13
2022-12-12T06:36:59.798Z,1.27
2022-12-12T06:39:27.303Z,2.60
2022-12-12T06:41:55.595Z,1.80
2022-12-12T06:44:23.110Z,1.58
2022-12-12T06:46:50.790Z,1.80
2022-12-12T06:49:18.385Z,2.00
2022-12-12T06:51:46.348Z,1.85
2022-12-12T06:54:17.346Z,1.40
2022-12-12T06:56:48.539Z,1.30
2022-12-12T06:59:17.201Z,1.30
2022-12-12T07:01:45.248Z,1.55
2022-12-12T07:04:13.552Z,2.17
2022-12-12T07:06:41.089Z,1.42
2022-12-12T07:09:08.777Z,1.38
2022-12-12T07:11:36.329Z,1.80
2022-12-12T07:14:05.797Z,1.60
2022-12-12T07:16:33.646Z,2.30
2022-12-12T07:19:01.125Z,1.67
2022-12-12T07:21:28.785Z,2.05
2022-12-12T07:23:57.171Z,2.17
2022-12-12T07:26:25.750Z,2.13
2022-12-12T07:28:53.424Z,2.33
2022-12-12T07:31:24.739Z,2.05
2022-12-12T07:33:54.369Z,2.50
2022-12-12T07:36:21.870Z,2.33
2022-12-12T07:38:49.763Z,2.60
2022-12-12T07:41:18.949Z,2.90
2022-12-12T07:43:49.529Z,2.80
2022-12-12T07:46:20.337Z,2.60
2022-12-12T07:48:48.199Z,2.70
2022-12-12T07:51:16.655Z,3.03
2022-12-12T07:53:44.679Z,3.25
2022-12-12T07:56:15.564Z,2.45
2022-12-12T07:58:43.799Z,2.60
2022-12-12T08:01:20.277Z,1.73
2022-12-12T08:03:48.909Z,2.03
2022-12-12T08:06:17.430Z,1.90
2022-12-12T08:08:45.917Z,1.80
2022-12-12T08:11:16.134Z,2.60
2022-12-12T08:13:44.006Z,2.10
2022-12-12T08:16:18.301Z,2.00
2022-12-12T08:18:46.474Z,1.65
2022-12-12T08:21:21.444Z,1.50
2022-12-12T08:23:55.142Z,2.47
2022-12-12T08:26:22.796Z,1.65
2022-12-12T08:28:50.372Z,1.63
2022-12-12T08:31:19.312Z,1.80
2022-12-12T08:33:47.763Z,1.73
2022-12-12T08:36:30.316Z,1.92
2022-12-12T08:39:18.155Z,1.90
2022-12-12T08:41:48.508Z,1.88
2022-12-12T08:44:19.105Z,1.80
2022-12-12T08:46:47.049Z,1.95
2022-12-12T08:49:14.559Z,1.88
2022-12-12T08:51:42.712Z,2.10
2022-12-12T08:54:12.809Z,1.60
2022-12-12T08:56:41.171Z,1.50
2022-12-12T08:59:08.709Z,1.58
2022-12-12T09:01:37.492Z,1.65
2022-12-12T09:04:05.134Z,1.20
2022-12-12T09:06:32.718Z,1.10
2022-12-12T09:09:00.272Z,1.95
2022-12-12T09:11:28.981Z,1.50
2022-12-12T09:13:56.578Z,1.27
2022-12-12T09:16:26.555Z,1.55
2022-12-12T09:18:54.216Z,1.23
2022-12-12T09:21:22.046Z,1.50
2022-12-12T09:23:50.292Z,1.85
2022-12-12T09:26:18.139Z,1.73
2022-12-12T09:28:45.738Z,1.77
2022-12-12T09:31:13.955Z,1.70
2022-12-12T09:33:43.001Z,1.98
2022-12-12T09:36:15.113Z,1.98
2022-12-12T09:38:42.996Z,2.30
2022-12-12T09:41:10.420Z,1.40
2022-12-12T09:43:59.251Z,1.80
2022-12-12T09:46:57.331Z,1.73
2022-12-12T09:49:43.084Z,1.77
2022-12-12T09:52:17.660Z,1.80
2022-12-12T09:54:45.602Z,1.63
2022-12-12T09:57:21.175Z,2.10
2022-12-12T10:03:05.427Z,1.50
2022-12-12T10:06:13.557Z,1.80
2022-12-12T10:11:32.151Z,1.10
2022-12-12T10:14:03.492Z,1.40
2022-12-12T10:16:32.921Z,1.20
2022-12-12T10:19:10.673Z,1.25
2022-12-12T10:21:41.050Z,1.95
2022-12-12T10:24:29.658Z,1.92
2022-12-12T10:26:59.025Z,1.52
2022-12-12T10:29:27.439Z,1.45
2022-12-12T10:32:24.723Z,1.55
2022-12-12T10:35:17.842Z,1.40
2022-12-12T10:38:02.439Z,1.30
2022-12-12T10:41:05.548Z,1.60
2022-12-12T10:43:38.167Z,1.27
2022-12-12T10:46:39.324Z,0.95
2022-12-12T10:49:16.424Z,2.13
2022-12-12T10:51:46.028Z,1.25
2022-12-12T10:54:26.544Z,1.30
2022-12-12T10:57:14.149Z,1.17
2022-12-12T10:59:54.445Z,1.10
2022-12-12T11:02:31.206Z,1.48
2022-12-12T11:05:06.571Z,1.30
2022-12-12T11:07:42.658Z,1.30
2022-12-12T11:10:31.972Z,1.55
2022-12-12T11:13:04.149Z,1.60
2022-12-12T11:15:49.606Z,1.40
2022-12-12T11:18:20.209Z,1.17
2022-12-12T11:21:09.463Z,1.58
2022-12-12T11:23:41.339Z,1.85
2022-12-12T11:26:20.488Z,1.52
2022-12-12T11:28:56.330Z,1.55
2022-12-12T11:31:28.815Z,1.60
2022-12-12T11:34:00.966Z,2.13
2022-12-12T11:36:33.593Z,2.20
2022-12-12T11:39:03.661Z,2.03
2022-12-12T11:41:57.619Z,2.35
2022-12-12T11:44:30.960Z,1.92
2022-12-12T11:47:18.615Z,1.60
2022-12-12T11:49:47.684Z,1.70
2022-12-12T11:52:21.048Z,1.83
2022-12-12T11:54:48.790Z,1.60
2022-12-12T11:57:39.958Z,1.95
2022-12-12T12:00:17.861Z,1.90
2022-12-12T12:03:21.056Z,2.28
2022-12-12T12:06:10.317Z,2.38
2022-12-12T12:09:12.081Z,1.90
2022-12-12T12:11:51.772Z,2.35
2022-12-12T12:14:46.678Z,2.60
2022-12-12T12:17:29.490Z,2.70
2022-12-12T12:20:13.646Z,2.50
2022-12-12T12:22:50.401Z,2.83
2022-12-12T12:25:33.601Z,2.55
2022-12-12T12:28:31.872Z,2.58
2022-12-12T12:30:59.863Z,2.42
2022-12-12T12:33:48.935Z,2.70
2022-12-12T12:36:28.827Z,2.85
2022-12-12T12:39:00.567Z,2.65
2022-12-12T12:41:51.414Z,2.10
2022-12-12T12:44:37.416Z,3.65
2022-12-12T12:47:29.652Z,2.25
2022-12-12T12:50:03.141Z,2.33
2022-12-12T12:52:38.798Z,2.20
2022-12-12T12:55:14.963Z,1.85
2022-12-12T12:57:48.698Z,2.10
2022-12-12T13:00:23.628Z,2.05
2022-12-12T13:03:00.136Z,2.50
2022-12-12T13:05:41.239Z,2.10
2022-12-12T13:08:28.846Z,1.88
2022-12-12T13:11:02.040Z,1.63
2022-12-12T13:13:33.000Z,2.42
2022-12-12T13:16:08.537Z,2.53
2022-12-12T13:18:52.422Z,1.85
2022-12-12T13:21:57.272Z,1.95
2022-12-12T13:24:51.583Z,1.83
2022-12-12T13:27:34.843Z,2.83
2022-12-12T13:30:11.169Z,1.60
2022-12-12T13:32:38.840Z,1.60
2022-12-12T13:35:22.730Z,1.35
2022-12-12T13:37:53.180Z,1.60
2022-12-12T13:40:41.459Z,1.45
2022-12-12T13:43:39.140Z,2.10
2022-12-12T13:46:24.849Z,2.58
2022-12-12T13:48:55.452Z,2.90
2022-12-12T13:51:30.245Z,2.13
2022-12-12T13:54:12.049Z,3.17
2022-12-12T13:56:45.304Z,2.75
2022-12-12T13:59:27.913Z,2.33
2022-12-12T14:02:03.379Z,3.25
2022-12-12T14:04:33.348Z,2.95
2022-12-12T14:07:13.369Z,2.30
2022-12-12T14:09:49.470Z,1.75
2022-12-12T14:12:17.277Z,2.40
2022-12-12T14:15:05.350Z,1.77
2022-12-12T14:17:41.778Z,2.38
2022-12-12T14:20:28.669Z,2.25
2022-12-12T14:25:33.413Z,1.65
2022-12-12T14:28:03.375Z,1.70
2022-12-12T14:30:41.277Z,1.50
2022-12-12T14:33:18.162Z,2.47
2022-12-12T14:36:16.203Z,1.80
2022-12-12T14:38:46.458Z,2.05
2022-12-12T14:41:18.470Z,2.88
2022-12-12T14:44:36.526Z,2.47
2022-12-12T14:46:44.616Z,2.42
2022-12-12T14:49:15.691Z,2.72
2022-12-12T14:51:45.542Z,2.60
2022-12-12T14:54:17.713Z,2.33
2022-12-12T14:57:01.435Z,2.28
2022-12-12T14:59:31.498Z,2.83
2022-12-12T15:02:15.402Z,2.63
2022-12-12T15:04:46.896Z,2.70
2022-12-12T15:07:32.104Z,2.95
2022-12-12T15:09:59.940Z,2.97
2022-12-12T15:12:33.507Z,2.70
2022-12-12T15:15:01.841Z,3.13
2022-12-12T15:17:31.036Z,3.72
2022-12-12T15:20:09.736Z,3.78
2022-12-12T15:22:48.684Z,3.45
2022-12-12T15:25:19.646Z,3.53
2022-12-12T15:27:55.553Z,3.72
2022-12-12T15:30:37.629Z,3.10
2022-12-12T15:33:07.793Z,2.25
2022-12-12T15:35:35.425Z,3.15
2022-12-12T15:38:21.424Z,3.40
2022-12-12T15:40:54.307Z,2.65
2022-12-12T15:43:28.103Z,3.28
2022-12-12T15:46:06.881Z,3.35
2022-12-12T15:48:34.913Z,3.30
2022-12-12T15:51:07.080Z,2.88
2022-12-12T15:53:37.981Z,2.80
2022-12-12T15:56:12.805Z,3.60
2022-12-12T15:58:41.827Z,5.63
2022-12-12T16:01:21.565Z,4.75
2022-12-12T16:03:59.988Z,4.18
2022-12-12T16:06:31.032Z,4.57
2022-12-12T16:09:07.548Z,4.25
2022-12-12T16:11:42.908Z,4.00
2022-12-12T16:14:39.529Z,3.97
2022-12-12T16:17:17.489Z,4.13
2022-12-12T16:20:10.285Z,3.35
2022-12-12T16:22:45.701Z,3.45
2022-12-12T16:25:16.825Z,4.15
2022-12-12T16:27:45.661Z,4.32
2022-12-12T16:30:14.933Z,3.90
2022-12-12T16:32:43.544Z,3.30
2022-12-12T16:35:19.226Z,3.25
2022-12-12T16:37:47.134Z,4.05
2022-12-12T16:40:17.871Z,3.47
2022-12-12T16:43:09.367Z,3.33
2022-12-12T16:45:39.697Z,4.18
2022-12-12T16:48:15.018Z,4.32
2022-12-12T16:50:43.419Z,4.35
2022-12-12T16:53:11.101Z,5.88
2022-12-12T16:55:42.577Z,4.93
2022-12-12T16:58:10.342Z,6.18
2022-12-12T17:00:38.534Z,5.05
2022-12-12T17:03:06.334Z,4.13
2022-12-12T17:05:35.375Z,3.38
2022-12-12T17:08:03.131Z,2.70
2022-12-12T17:10:32.405Z,4.13
2022-12-12T17:13:00.196Z,3.67
2022-12-12T17:15:29.967Z,6.15
2022-12-12T17:17:57.787Z,7.20
2022-12-12T17:20:27.065Z,8.27
2022-12-12T17:23:29.764Z,7.45
2022-12-12T17:26:03.516Z,8.13
2022-12-12T17:28:33.861Z,5.47
2022-12-12T17:31:01.969Z,5.70
2022-12-12T17:33:30.229Z,5.43
2022-12-12T17:36:03.899Z,5.10
2022-12-12T17:38:31.458Z,3.92
2022-12-12T17:41:04.246Z,4.00
2022-12-12T17:43:31.868Z,4.80
2022-12-12T17:46:06.122Z,4.03
2022-12-12T17:48:35.265Z,4.80
2022-12-12T17:51:05.479Z,4.45
2022-12-12T17:53:38.862Z,4.63
2022-12-12T17:56:11.638Z,4.80
2022-12-12T17:58:41.917Z,4.80
2022-12-12T18:01:14.803Z,4.82
2022-12-12T18:03:43.824Z,5.00
2022-12-12T18:06:12.594Z,5.53
2022-12-12T18:08:41.216Z,4.63
2022-12-12T18:11:10.894Z,4.97
2022-12-12T18:13:40.095Z,4.88
2022-12-12T18:16:09.725Z,5.93
2022-12-12T18:18:37.569Z,6.78
2022-12-12T18:21:23.527Z,8.90
2022-12-12T18:26:29.441Z,7.43
2022-12-12T18:29:01.504Z,5.63
2022-12-12T18:31:30.032Z,5.25
2022-12-12T18:33:58.346Z,5.32
2022-12-12T18:36:28.294Z,5.18
2022-12-12T18:38:57.468Z,6.35
2022-12-12T18:41:26.571Z,6.32
2022-12-12T18:43:55.524Z,6.55
2022-12-12T18:46:24.853Z,5.72
2022-12-12T18:48:52.502Z,5.38
2022-12-12T18:51:23.361Z,6.85
2022-12-12T18:53:52.987Z,7.00
2022-12-12T18:56:24.035Z,7.70
2022-12-12T18:58:55.852Z,7.13
2022-12-12T19:01:27.195Z,11.10
2022-12-12T19:03:59.226Z,9.43
2022-12-12T19:06:33.931Z,8.55
2022-12-12T19:09:05.366Z,11.40
2022-12-12T19:11:35.384Z,10.40
2022-12-12T19:14:03.535Z,7.70
2022-12-12T19:16:31.519Z,7.88
2022-12-12T19:19:05.138Z,6.95
2022-12-12T19:21:35.048Z,7.88
2022-12-12T19:24:03.202Z,6.50
2022-12-12T19:26:31.072Z,5.22
2022-12-12T19:29:07.145Z,6.65
2022-12-12T19:31:36.068Z,5.53
2022-12-12T19:34:05.891Z,5.00
2022-12-12T19:36:34.160Z,6.28
2022-12-12T19:39:05.676Z,4.88
2022-12-12T19:41:34.198Z,6.15
2022-12-12T19:44:02.861Z,6.65
2022-12-12T19:46:32.019Z,7.03
2022-12-12T19:49:03.093Z,7.70
2022-12-12T19:51:36.083Z,7.63
2022-12-12T19:54:08.028Z,7.53
2022-12-12T19:56:37.329Z,6.40
2022-12-12T19:59:05.322Z,8.57
2022-12-12T20:01:35.703Z,7.43
2022-12-12T20:04:12.839Z,6.10
2022-12-12T20:06:46.024Z,5.95
2022-12-12T20:09:19.317Z,6.55
2022-12-12T20:11:47.295Z,7.32
2022-12-12T20:14:23.316Z,6.82
2022-12-12T20:16:52.393Z,7.00
2022-12-12T20:19:20.813Z,6.30
2022-12-12T20:22:05.885Z,6.22
2022-12-12T20:24:34.345Z,5.60
2022-12-12T20:27:05.744Z,5.82
2022-12-12T20:29:33.192Z,6.28
2022-12-12T20:32:01.741Z,7.18
2022-12-12T20:34:29.507Z,6.03
2022-12-12T20:36:57.342Z,7.93
2022-12-12T20:39:26.157Z,8.20
2022-12-12T20:41:54.632Z,7.20
2022-12-12T20:44:25.865Z,8.73
2022-12-12T20:46:53.876Z,9.63
2022-12-12T20:49:22.481Z,10.70
2022-12-12T20:51:58.355Z,9.23
2022-12-12T20:54:28.465Z,7.07
2022-12-12T20:56:57.457Z,6.72
2022-12-12T20:59:25.278Z,9.30
2022-12-12T21:01:53.602Z,8.57
2022-12-12T21:04:21.970Z,17.17
2022-12-12T21:06:51.249Z,9.02
2022-12-12T21:09:24.510Z,7.88
2022-12-12T21:11:54.946Z,6.07
2022-12-12T21:14:22.997Z,7.95
2022-12-12T21:16:50.627Z,7.15
2022-12-12T21:19:19.102Z,5.70
2022-12-12T21:21:46.976Z,5.53
2022-12-12T21:24:16.929Z,6.03
2022-12-12T21:26:45.408Z,5.20
2022-12-12T21:29:13.290Z,4.60
2022-12-12T21:31:48.314Z,4.40
2022-12-12T21:34:19.694Z,3.72
2022-12-12T21:36:50.548Z,3.65
2022-12-12T21:39:18.172Z,5.50
2022-12-12T21:41:45.668Z,4.22
2022-12-12T21:44:13.273Z,4.20
2022-12-12T21:46:43.319Z,4.43
2022-12-12T21:49:26.549Z,4.63
2022-12-12T21:52:03.737Z,4.20
2022-12-12T21:54:31.890Z,3.92
2022-12-12T21:57:00.669Z,5.28
2022-12-12T21:59:29.052Z,3.88
2022-12-12T22:01:58.948Z,3.95
2022-12-12T22:04:27.236Z,3.70
2022-12-12T22:06:55.145Z,3.63
2022-12-12T22:09:22.864Z,3.60
2022-12-12T22:11:51.583Z,4.63
2022-12-12T22:14:21.667Z,3.47
2022-12-12T22:16:49.662Z,4.15
2022-12-12T22:19:17.617Z,3.78
2022-12-12T22:21:48.554Z,3.45
2022-12-12T22:24:17.522Z,3.47
2022-12-12T22:26:50.072Z,3.65
2022-12-12T22:29:20.233Z,4.05
2022-12-12T22:31:50.351Z,3.92
2022-12-12T22:34:21.102Z,4.00
2022-12-12T22:36:48.891Z,5.63
2022-12-12T22:39:23.460Z,4.22
2022-12-12T22:41:51.911Z,3.33
2022-12-12T22:44:21.781Z,3.80
2022-12-12T22:46:51.536Z,3.25
2022-12-12T22:49:22.627Z,3.35
2022-12-12T22:51:50.224Z,3.97
2022-12-12T22:54:18.777Z,4.03
2022-12-12T22:56:46.543Z,3.67
2022-12-12T22:59:14.434Z,2.70
2022-12-12T23:01:42.513Z,3.03
2022-12-12T23:04:14.762Z,3.42
2022-12-12T23:06:43.352Z,2.92
2022-12-12T23:09:17.667Z,3.13
2022-12-12T23:11:45.534Z,3.60
2022-12-12T23:14:16.240Z,3.67
2022-12-12T23:16:44.246Z,3.17
2022-12-12T23:19:14.658Z,2.85
2022-12-12T23:21:42.370Z,3.47
2022-12-12T23:24:10.343Z,2.97
2022-12-12T23:26:38.495Z,3.15
2022-12-12T23:29:09.330Z,3.13
2022-12-12T23:31:38.968Z,2.45
2022-12-12T23:34:17.920Z,2.90
2022-12-12T23:36:45.468Z,3.85
2022-12-12T23:39:13.923Z,2.95
2022-12-12T23:41:42.077Z,2.65
2022-12-12T23:44:13.554Z,2.70
2022-12-12T23:46:41.577Z,3.00
2022-12-12T23:49:23.705Z,3.45
2022-12-12T23:51:52.788Z,2.88
2022-12-12T23:54:27.548Z,2.97
2022-12-12T23:56:56.056Z,2.97
2022-12-12T23:59:25.680Z,3.13
